sensor_id;sensor_type;location;lat;lon;timestamp;temperature;humidity
12013;DHT22;6065;48.138;16.402;2022-12-15T00:00:50;0.20;99.90
12013;DHT22;6065;48.138;16.402;2022-12-15T00:03:35;0.20;99.90
12013;DHT22;6065;48.138;16.402;2022-12-15T00:06:19;0.20;99.90
12013;DHT22;6065;48.138;16.402;2022-12-15T00:09:03;0.20;99.90
12013;DHT22;6065;48.138;16.402;2022-12-15T00:11:48;0.20;99.90
12013;DHT22;6065;48.138;16.402;2022-12-15T00:14:32;0.20;99.90
12013;DHT22;6065;48.138;16.402;2022-12-15T00:17:17;0.20;99.90
12013;DHT22;6065;48.138;16.402;2022-12-15T00:20:02;0.30;99.90
12013;DHT22;6065;48.138;16.402;2022-12-15T00:22:46;0.20;99.90
12013;DHT22;6065;48.138;16.402;2022-12-15T00:25:30;0.20;99.90
12013;DHT22;6065;48.138;16.402;2022-12-15T00:28:14;0.20;99.90
12013;DHT22;6065;48.138;16.402;2022-12-15T00:30:59;0.20;99.90
12013;DHT22;6065;48.138;16.402;2022-12-15T00:33:44;0.20;99.90
12013;DHT22;6065;48.138;16.402;2022-12-15T00:36:29;0.20;99.90
12013;DHT22;6065;48.138;16.402;2022-12-15T00:39:13;0.20;99.90
12013;DHT22;6065;48.138;16.402;2022-12-15T00:41:40;0.20;99.90
12013;DHT22;6065;48.138;16.402;2022-12-15T00:44:06;0.20;99.90
12013;DHT22;6065;48.138;16.402;2022-12-15T00:46:33;0.10;99.90
12013;DHT22;6065;48.138;16.402;2022-12-15T00:49:18;0.10;99.90
12013;DHT22;6065;48.138;16.402;2022-12-15T00:52:02;0.10;99.90
12013;DHT22;6065;48.138;16.402;2022-12-15T00:54:46;0.20;99.90
12013;DHT22;6065;48.138;16.402;2022-12-15T00:57:31;0.10;99.90
12013;DHT22;6065;48.138;16.402;2022-12-15T01:00:15;0.10;99.90
12013;DHT22;6065;48.138;16.402;2022-12-15T01:02:59;0.10;99.90
12013;DHT22;6065;48.138;16.402;2022-12-15T01:05:45;0.10;99.90
12013;DHT22;6065;48.138;16.402;2022-12-15T01:08:29;0.20;99.90
12013;DHT22;6065;48.138;16.402;2022-12-15T01:11:14;0.20;99.90
12013;DHT22;6065;48.138;16.402;2022-12-15T01:13:58;0.20;99.90
12013;DHT22;6065;48.138;16.402;2022-12-15T01:16:42;0.20;99.90
12013;DHT22;6065;48.138;16.402;2022-12-15T01:19:26;0.30;99.90
12013;DHT22;6065;48.138;16.402;2022-12-15T01:22:12;0.30;99.90
12013;DHT22;6065;48.138;16.402;2022-12-15T01:24:38;0.30;99.90
12013;DHT22;6065;48.138;16.402;2022-12-15T01:27:05;0.30;99.90
12013;DHT22;6065;48.138;16.402;2022-12-15T01:29:32;0.30;99.90
12013;DHT22;6065;48.138;16.402;2022-12-15T01:31:59;0.30;99.90
12013;DHT22;6065;48.138;16.402;2022-12-15T01:34:25;0.30;99.90
12013;DHT22;6065;48.138;16.402;2022-12-15T01:36:52;0.30;99.90
12013;DHT22;6065;48.138;16.402;2022-12-15T01:39:20;0.20;99.90
12013;DHT22;6065;48.138;16.402;2022-12-15T01:41:47;0.20;99.90
12013;DHT22;6065;48.138;16.402;2022-12-15T01:44:14;0.20;99.90
12013;DHT22;6065;48.138;16.402;2022-12-15T01:46:40;0.30;99.90
12013;DHT22;6065;48.138;16.402;2022-12-15T01:49:10;0.30;99.90
12013;DHT22;6065;48.138;16.402;2022-12-15T01:51:39;0.30;99.90
12013;DHT22;6065;48.138;16.402;2022-12-15T01:54:07;0.30;99.90
12013;DHT22;6065;48.138;16.402;2022-12-15T01:56:37;0.30;99.90
12013;DHT22;6065;48.138;16.402;2022-12-15T01:59:06;0.30;99.90
12013;DHT22;6065;48.138;16.402;2022-12-15T02:01:34;0.30;99.90
12013;DHT22;6065;48.138;16.402;2022-12-15T02:04:02;0.30;99.90
12013;DHT22;6065;48.138;16.402;2022-12-15T02:06:28;0.30;99.90
12013;DHT22;6065;48.138;16.402;2022-12-15T02:08:55;0.30;99.90
12013;DHT22;6065;48.138;16.402;2022-12-15T02:11:37;0.30;99.90
12013;DHT22;6065;48.138;16.402;2022-12-15T02:14:07;0.40;99.90
12013;DHT22;6065;48.138;16.402;2022-12-15T02:16:37;0.40;99.90
12013;DHT22;6065;48.138;16.402;2022-12-15T02:19:10;0.40;99.90
12013;DHT22;6065;48.138;16.402;2022-12-15T02:21:45;0.40;99.90
12013;DHT22;6065;48.138;16.402;2022-12-15T02:27:13;0.40;99.90
12013;DHT22;6065;48.138;16.402;2022-12-15T02:32:24;0.40;99.90
12013;DHT22;6065;48.138;16.402;2022-12-15T02:34:52;0.40;99.90
12013;DHT22;6065;48.138;16.402;2022-12-15T02:37:21;0.30;99.90
12013;DHT22;6065;48.138;16.402;2022-12-15T02:39:48;0.30;99.90
12013;DHT22;6065;48.138;16.402;2022-12-15T02:42:15;0.30;99.90
12013;DHT22;6065;48.138;16.402;2022-12-15T02:44:43;0.30;99.90
12013;DHT22;6065;48.138;16.402;2022-12-15T02:47:14;0.40;99.90
12013;DHT22;6065;48.138;16.402;2022-12-15T02:49:47;0.30;99.90
12013;DHT22;6065;48.138;16.402;2022-12-15T02:52:18;0.50;99.90
12013;DHT22;6065;48.138;16.402;2022-12-15T02:54:55;0.30;99.90
12013;DHT22;6065;48.138;16.402;2022-12-15T02:57:24;0.40;99.90
12013;DHT22;6065;48.138;16.402;2022-12-15T02:59:53;0.40;99.90
12013;DHT22;6065;48.138;16.402;2022-12-15T03:02:22;0.40;99.90
12013;DHT22;6065;48.138;16.402;2022-12-15T03:04:51;0.30;99.90
12013;DHT22;6065;48.138;16.402;2022-12-15T03:07:18;0.30;99.90
12013;DHT22;6065;48.138;16.402;2022-12-15T03:09:45;0.30;99.90
12013;DHT22;6065;48.138;16.402;2022-12-15T03:12:13;0.30;99.90
12013;DHT22;6065;48.138;16.402;2022-12-15T03:14:40;0.30;99.90
12013;DHT22;6065;48.138;16.402;2022-12-15T03:17:07;0.30;99.90
12013;DHT22;6065;48.138;16.402;2022-12-15T03:19:33;0.30;99.90
12013;DHT22;6065;48.138;16.402;2022-12-15T03:22:01;0.30;99.90
12013;DHT22;6065;48.138;16.402;2022-12-15T03:24:28;0.30;99.90
12013;DHT22;6065;48.138;16.402;2022-12-15T03:26:55;0.30;99.90
12013;DHT22;6065;48.138;16.402;2022-12-15T03:29:22;0.30;99.90
12013;DHT22;6065;48.138;16.402;2022-12-15T03:31:48;0.30;99.90
12013;DHT22;6065;48.138;16.402;2022-12-15T03:34:15;0.30;99.90
12013;DHT22;6065;48.138;16.402;2022-12-15T03:36:42;0.20;99.90
12013;DHT22;6065;48.138;16.402;2022-12-15T03:39:10;0.20;99.90
12013;DHT22;6065;48.138;16.402;2022-12-15T03:41:37;0.20;99.90
12013;DHT22;6065;48.138;16.402;2022-12-15T03:44:03;0.20;99.90
12013;DHT22;6065;48.138;16.402;2022-12-15T03:46:30;0.20;99.90
12013;DHT22;6065;48.138;16.402;2022-12-15T03:48:57;0.30;99.90
12013;DHT22;6065;48.138;16.402;2022-12-15T03:51:24;0.20;99.90
12013;DHT22;6065;48.138;16.402;2022-12-15T03:53:50;0.20;99.90
12013;DHT22;6065;48.138;16.402;2022-12-15T03:56:19;0.20;99.90
12013;DHT22;6065;48.138;16.402;2022-12-15T03:58:46;0.30;99.90
12013;DHT22;6065;48.138;16.402;2022-12-15T04:01:22;0.30;99.90
12013;DHT22;6065;48.138;16.402;2022-12-15T04:03:51;0.30;99.90
12013;DHT22;6065;48.138;16.402;2022-12-15T04:06:18;0.30;99.90
12013;DHT22;6065;48.138;16.402;2022-12-15T04:08:44;0.30;99.90
12013;DHT22;6065;48.138;16.402;2022-12-15T04:11:11;0.30;99.90
12013;DHT22;6065;48.138;16.402;2022-12-15T04:13:39;0.40;99.90
12013;DHT22;6065;48.138;16.402;2022-12-15T04:16:06;0.40;99.90
12013;DHT22;6065;48.138;16.402;2022-12-15T04:18:33;0.40;99.90
12013;DHT22;6065;48.138;16.402;2022-12-15T04:20:59;0.40;99.90
12013;DHT22;6065;48.138;16.402;2022-12-15T04:23:25;0.40;99.90
12013;DHT22;6065;48.138;16.402;2022-12-15T04:25:52;0.50;99.90
12013;DHT22;6065;48.138;16.402;2022-12-15T04:28:36;0.40;99.90
12013;DHT22;6065;48.138;16.402;2022-12-15T04:31:22;0.40;99.90
12013;DHT22;6065;48.138;16.402;2022-12-15T04:34:09;0.40;99.90
12013;DHT22;6065;48.138;16.402;2022-12-15T04:36:54;0.30;99.90
12013;DHT22;6065;48.138;16.402;2022-12-15T04:39:41;0.30;99.90
12013;DHT22;6065;48.138;16.402;2022-12-15T04:42:26;0.30;99.90
12013;DHT22;6065;48.138;16.402;2022-12-15T04:45:11;0.30;99.90
12013;DHT22;6065;48.138;16.402;2022-12-15T04:47:57;0.20;99.90
12013;DHT22;6065;48.138;16.402;2022-12-15T04:50:42;0.30;99.90
12013;DHT22;6065;48.138;16.402;2022-12-15T04:53:26;0.30;99.90
12013;DHT22;6065;48.138;16.402;2022-12-15T04:56:11;0.30;99.90
12013;DHT22;6065;48.138;16.402;2022-12-15T04:58:55;0.20;99.90
12013;DHT22;6065;48.138;16.402;2022-12-15T05:01:39;0.30;99.90
12013;DHT22;6065;48.138;16.402;2022-12-15T05:04:25;0.30;99.90
12013;DHT22;6065;48.138;16.402;2022-12-15T05:07:09;0.30;99.90
12013;DHT22;6065;48.138;16.402;2022-12-15T05:09:53;0.30;99.90
12013;DHT22;6065;48.138;16.402;2022-12-15T05:12:38;0.30;99.90
12013;DHT22;6065;48.138;16.402;2022-12-15T05:15:22;0.30;99.90
12013;DHT22;6065;48.138;16.402;2022-12-15T05:18:06;0.30;99.90
12013;DHT22;6065;48.138;16.402;2022-12-15T05:20:52;0.40;99.90
12013;DHT22;6065;48.138;16.402;2022-12-15T05:23:36;0.40;99.90
12013;DHT22;6065;48.138;16.402;2022-12-15T05:26:20;0.40;99.90
12013;DHT22;6065;48.138;16.402;2022-12-15T05:29:05;0.40;99.90
12013;DHT22;6065;48.138;16.402;2022-12-15T05:31:49;0.40;99.90
12013;DHT22;6065;48.138;16.402;2022-12-15T05:34:20;0.40;99.90
12013;DHT22;6065;48.138;16.402;2022-12-15T05:36:48;0.40;99.90
12013;DHT22;6065;48.138;16.402;2022-12-15T05:39:15;0.60;99.90
12013;DHT22;6065;48.138;16.402;2022-12-15T05:41:42;0.40;99.90
12013;DHT22;6065;48.138;16.402;2022-12-15T05:44:11;0.50;99.90
12013;DHT22;6065;48.138;16.402;2022-12-15T05:46:38;0.40;99.90
12013;DHT22;6065;48.138;16.402;2022-12-15T05:49:05;0.40;99.90
12013;DHT22;6065;48.138;16.402;2022-12-15T05:51:32;0.40;99.90
12013;DHT22;6065;48.138;16.402;2022-12-15T05:54:01;0.50;99.90
12013;DHT22;6065;48.138;16.402;2022-12-15T05:56:27;0.50;99.90
12013;DHT22;6065;48.138;16.402;2022-12-15T05:58:54;0.50;99.90
12013;DHT22;6065;48.138;16.402;2022-12-15T06:01:22;0.50;99.90
12013;DHT22;6065;48.138;16.402;2022-12-15T06:03:49;0.50;99.90
12013;DHT22;6065;48.138;16.402;2022-12-15T06:06:16;0.50;99.90
12013;DHT22;6065;48.138;16.402;2022-12-15T06:08:43;0.50;99.90
12013;DHT22;6065;48.138;16.402;2022-12-15T06:11:12;0.50;99.90
12013;DHT22;6065;48.138;16.402;2022-12-15T06:13:39;0.60;99.90
12013;DHT22;6065;48.138;16.402;2022-12-15T06:16:07;0.60;99.90
12013;DHT22;6065;48.138;16.402;2022-12-15T06:18:35;0.60;99.90
12013;DHT22;6065;48.138;16.402;2022-12-15T06:21:03;0.80;99.90
12013;DHT22;6065;48.138;16.402;2022-12-15T06:23:30;0.90;99.90
12013;DHT22;6065;48.138;16.402;2022-12-15T06:25:58;0.80;99.90
12013;DHT22;6065;48.138;16.402;2022-12-15T06:28:27;0.90;99.90
12013;DHT22;6065;48.138;16.402;2022-12-15T06:30:54;0.80;99.90
12013;DHT22;6065;48.138;16.402;2022-12-15T06:33:27;0.80;99.90
12013;DHT22;6065;48.138;16.402;2022-12-15T06:35:54;0.80;99.90
12013;DHT22;6065;48.138;16.402;2022-12-15T06:38:21;0.80;99.90
12013;DHT22;6065;48.138;16.402;2022-12-15T06:40:53;0.80;99.90
12013;DHT22;6065;48.138;16.402;2022-12-15T06:43:20;0.80;99.90
12013;DHT22;6065;48.138;16.402;2022-12-15T06:45:48;0.70;99.90
12013;DHT22;6065;48.138;16.402;2022-12-15T06:48:14;0.80;99.90
12013;DHT22;6065;48.138;16.402;2022-12-15T06:50:41;0.80;99.90
12013;DHT22;6065;48.138;16.402;2022-12-15T06:53:08;0.80;99.90
12013;DHT22;6065;48.138;16.402;2022-12-15T06:55:34;0.80;99.90
12013;DHT22;6065;48.138;16.402;2022-12-15T06:58:01;0.80;99.90
12013;DHT22;6065;48.138;16.402;2022-12-15T07:00:28;0.80;99.90
12013;DHT22;6065;48.138;16.402;2022-12-15T07:02:56;0.80;99.90
12013;DHT22;6065;48.138;16.402;2022-12-15T07:05:23;0.80;99.90
12013;DHT22;6065;48.138;16.402;2022-12-15T07:07:50;0.80;99.90
12013;DHT22;6065;48.138;16.402;2022-12-15T07:10:17;0.80;99.90
12013;DHT22;6065;48.138;16.402;2022-12-15T07:12:43;0.80;99.90
12013;DHT22;6065;48.138;16.402;2022-12-15T07:15:10;0.80;99.90
12013;DHT22;6065;48.138;16.402;2022-12-15T07:17:37;0.80;99.90
12013;DHT22;6065;48.138;16.402;2022-12-15T07:20:06;0.90;99.90
12013;DHT22;6065;48.138;16.402;2022-12-15T07:22:33;0.90;99.90
12013;DHT22;6065;48.138;16.402;2022-12-15T07:25:01;0.90;99.90
12013;DHT22;6065;48.138;16.402;2022-12-15T07:27:27;0.90;99.90
12013;DHT22;6065;48.138;16.402;2022-12-15T07:29:54;0.90;99.90
12013;DHT22;6065;48.138;16.402;2022-12-15T07:32:21;0.90;99.90
12013;DHT22;6065;48.138;16.402;2022-12-15T07:34:47;0.90;99.90
12013;DHT22;6065;48.138;16.402;2022-12-15T07:37:15;0.90;99.90
12013;DHT22;6065;48.138;16.402;2022-12-15T07:39:42;0.90;99.90
12013;DHT22;6065;48.138;16.402;2022-12-15T07:42:09;0.90;99.90
12013;DHT22;6065;48.138;16.402;2022-12-15T07:44:35;0.90;99.90
12013;DHT22;6065;48.138;16.402;2022-12-15T07:47:02;1.00;99.90
12013;DHT22;6065;48.138;16.402;2022-12-15T07:49:29;1.00;99.90
12013;DHT22;6065;48.138;16.402;2022-12-15T07:51:55;1.00;99.90
12013;DHT22;6065;48.138;16.402;2022-12-15T07:54:24;1.00;99.90
12013;DHT22;6065;48.138;16.402;2022-12-15T07:56:51;1.00;99.90
12013;DHT22;6065;48.138;16.402;2022-12-15T07:59:17;1.00;99.90
12013;DHT22;6065;48.138;16.402;2022-12-15T08:01:45;1.00;99.90
12013;DHT22;6065;48.138;16.402;2022-12-15T08:04:11;1.00;99.90
12013;DHT22;6065;48.138;16.402;2022-12-15T08:06:38;1.00;99.90
12013;DHT22;6065;48.138;16.402;2022-12-15T08:09:05;1.00;99.90
12013;DHT22;6065;48.138;16.402;2022-12-15T08:11:33;1.00;99.90
12013;DHT22;6065;48.138;16.402;2022-12-15T08:14:00;1.00;99.90
12013;DHT22;6065;48.138;16.402;2022-12-15T08:16:27;1.00;99.90
12013;DHT22;6065;48.138;16.402;2022-12-15T08:18:54;1.10;99.90
12013;DHT22;6065;48.138;16.402;2022-12-15T08:21:21;1.10;99.90
12013;DHT22;6065;48.138;16.402;2022-12-15T08:23:48;1.10;99.90
12013;DHT22;6065;48.138;16.402;2022-12-15T08:26:15;1.10;99.90
12013;DHT22;6065;48.138;16.402;2022-12-15T08:28:44;1.10;99.90
12013;DHT22;6065;48.138;16.402;2022-12-15T08:31:11;1.10;99.90
12013;DHT22;6065;48.138;16.402;2022-12-15T08:33:38;1.10;99.90
12013;DHT22;6065;48.138;16.402;2022-12-15T08:36:06;1.20;99.90
12013;DHT22;6065;48.138;16.402;2022-12-15T08:38:33;1.20;99.90
12013;DHT22;6065;48.138;16.402;2022-12-15T08:41:05;1.20;99.90
12013;DHT22;6065;48.138;16.402;2022-12-15T08:43:32;1.20;99.90
12013;DHT22;6065;48.138;16.402;2022-12-15T08:46:00;1.20;99.90
12013;DHT22;6065;48.138;16.402;2022-12-15T08:48:26;1.20;99.90
12013;DHT22;6065;48.138;16.402;2022-12-15T08:50:53;1.20;99.90
12013;DHT22;6065;48.138;16.402;2022-12-15T08:53:20;1.20;99.90
12013;DHT22;6065;48.138;16.402;2022-12-15T08:55:47;1.20;99.90
12013;DHT22;6065;48.138;16.402;2022-12-15T08:58:14;1.20;99.90
12013;DHT22;6065;48.138;16.402;2022-12-15T09:00:41;1.20;99.90
12013;DHT22;6065;48.138;16.402;2022-12-15T09:03:09;1.30;99.90
12013;DHT22;6065;48.138;16.402;2022-12-15T09:05:36;1.30;99.90
12013;DHT22;6065;48.138;16.402;2022-12-15T09:08:03;1.30;99.90
12013;DHT22;6065;48.138;16.402;2022-12-15T09:10:30;1.30;99.90
12013;DHT22;6065;48.138;16.402;2022-12-15T09:12:57;1.40;99.90
12013;DHT22;6065;48.138;16.402;2022-12-15T09:15:24;1.40;99.90
12013;DHT22;6065;48.138;16.402;2022-12-15T09:17:51;1.40;99.90
12013;DHT22;6065;48.138;16.402;2022-12-15T09:20:19;1.50;99.90
12013;DHT22;6065;48.138;16.402;2022-12-15T09:22:46;1.50;99.90
12013;DHT22;6065;48.138;16.402;2022-12-15T09:25:13;1.50;99.90
12013;DHT22;6065;48.138;16.402;2022-12-15T09:27:39;1.50;99.90
12013;DHT22;6065;48.138;16.402;2022-12-15T09:30:06;1.50;99.90
12013;DHT22;6065;48.138;16.402;2022-12-15T09:32:36;1.50;99.90
12013;DHT22;6065;48.138;16.402;2022-12-15T09:35:03;1.50;99.90
12013;DHT22;6065;48.138;16.402;2022-12-15T09:37:31;1.50;99.90
12013;DHT22;6065;48.138;16.402;2022-12-15T09:39:58;1.50;99.90
12013;DHT22;6065;48.138;16.402;2022-12-15T09:42:25;1.60;99.90
12013;DHT22;6065;48.138;16.402;2022-12-15T09:44:56;1.50;99.90
12013;DHT22;6065;48.138;16.402;2022-12-15T09:47:24;1.50;99.90
12013;DHT22;6065;48.138;16.402;2022-12-15T09:49:53;1.50;99.90
12013;DHT22;6065;48.138;16.402;2022-12-15T09:52:21;1.50;99.90
12013;DHT22;6065;48.138;16.402;2022-12-15T09:54:50;1.50;99.90
12013;DHT22;6065;48.138;16.402;2022-12-15T09:57:19;1.60;99.90
12013;DHT22;6065;48.138;16.402;2022-12-15T10:00:02;1.50;99.90
12013;DHT22;6065;48.138;16.402;2022-12-15T10:05:21;1.60;99.90
12013;DHT22;6065;48.138;16.402;2022-12-15T10:07:52;1.60;99.90
12013;DHT22;6065;48.138;16.402;2022-12-15T10:10:22;1.60;99.90
12013;DHT22;6065;48.138;16.402;2022-12-15T10:12:49;1.60;99.90
12013;DHT22;6065;48.138;16.402;2022-12-15T10:15:19;1.60;99.90
12013;DHT22;6065;48.138;16.402;2022-12-15T10:17:48;1.70;99.90
12013;DHT22;6065;48.138;16.402;2022-12-15T10:20:18;1.70;99.90
12013;DHT22;6065;48.138;16.402;2022-12-15T10:22:45;1.70;99.90
12013;DHT22;6065;48.138;16.402;2022-12-15T10:25:16;1.70;99.90
12013;DHT22;6065;48.138;16.402;2022-12-15T10:30:32;1.70;99.90
12013;DHT22;6065;48.138;16.402;2022-12-15T10:33:01;1.70;99.90
12013;DHT22;6065;48.138;16.402;2022-12-15T10:35:28;1.80;99.90
12013;DHT22;6065;48.138;16.402;2022-12-15T10:37:56;1.70;99.90
12013;DHT22;6065;48.138;16.402;2022-12-15T10:43:07;1.70;99.90
12013;DHT22;6065;48.138;16.402;2022-12-15T10:45:39;1.70;99.90
12013;DHT22;6065;48.138;16.402;2022-12-15T10:48:08;1.70;99.90
12013;DHT22;6065;48.138;16.402;2022-12-15T10:50:41;1.70;99.90
12013;DHT22;6065;48.138;16.402;2022-12-15T10:53:08;1.70;99.90
12013;DHT22;6065;48.138;16.402;2022-12-15T10:55:35;1.70;99.90
12013;DHT22;6065;48.138;16.402;2022-12-15T10:58:03;1.70;99.90
12013;DHT22;6065;48.138;16.402;2022-12-15T11:00:31;1.70;99.90
12013;DHT22;6065;48.138;16.402;2022-12-15T11:02:59;1.70;99.90
12013;DHT22;6065;48.138;16.402;2022-12-15T11:05:26;1.70;99.90
12013;DHT22;6065;48.138;16.402;2022-12-15T11:07:53;1.70;99.90
12013;DHT22;6065;48.138;16.402;2022-12-15T11:10:21;1.70;99.90
12013;DHT22;6065;48.138;16.402;2022-12-15T11:12:55;1.70;99.90
12013;DHT22;6065;48.138;16.402;2022-12-15T11:15:33;1.70;99.90
12013;DHT22;6065;48.138;16.402;2022-12-15T11:18:03;1.70;99.90
12013;DHT22;6065;48.138;16.402;2022-12-15T11:20:36;1.70;99.90
12013;DHT22;6065;48.138;16.402;2022-12-15T11:23:04;1.70;99.90
12013;DHT22;6065;48.138;16.402;2022-12-15T11:25:35;1.70;99.90
12013;DHT22;6065;48.138;16.402;2022-12-15T11:28:07;1.70;99.90
12013;DHT22;6065;48.138;16.402;2022-12-15T11:30:37;1.70;99.90
12013;DHT22;6065;48.138;16.402;2022-12-15T11:33:07;1.70;99.90
12013;DHT22;6065;48.138;16.402;2022-12-15T11:35:39;1.80;99.90
12013;DHT22;6065;48.138;16.402;2022-12-15T11:38:11;1.70;99.90
12013;DHT22;6065;48.138;16.402;2022-12-15T11:40:41;1.80;99.90
12013;DHT22;6065;48.138;16.402;2022-12-15T11:43:18;1.80;99.90
12013;DHT22;6065;48.138;16.402;2022-12-15T11:45:50;1.80;99.90
12013;DHT22;6065;48.138;16.402;2022-12-15T11:48:21;1.80;99.90
12013;DHT22;6065;48.138;16.402;2022-12-15T11:50:52;1.80;99.90
12013;DHT22;6065;48.138;16.402;2022-12-15T11:53:24;1.80;99.90
12013;DHT22;6065;48.138;16.402;2022-12-15T11:55:55;1.90;99.90
12013;DHT22;6065;48.138;16.402;2022-12-15T11:58:41;1.80;99.90
12013;DHT22;6065;48.138;16.402;2022-12-15T12:01:12;1.70;99.90
12013;DHT22;6065;48.138;16.402;2022-12-15T12:03:44;1.80;99.90
12013;DHT22;6065;48.138;16.402;2022-12-15T12:06:14;1.80;99.90
12013;DHT22;6065;48.138;16.402;2022-12-15T12:08:48;1.80;99.90
12013;DHT22;6065;48.138;16.402;2022-12-15T12:11:17;1.70;99.90
12013;DHT22;6065;48.138;16.402;2022-12-15T12:13:50;1.80;99.90
12013;DHT22;6065;48.138;16.402;2022-12-15T12:16:23;1.80;99.90
12013;DHT22;6065;48.138;16.402;2022-12-15T12:18:55;1.70;99.90
12013;DHT22;6065;48.138;16.402;2022-12-15T12:21:23;1.70;99.90
12013;DHT22;6065;48.138;16.402;2022-12-15T12:23:53;1.70;99.90
12013;DHT22;6065;48.138;16.402;2022-12-15T12:26:25;1.70;99.90
12013;DHT22;6065;48.138;16.402;2022-12-15T12:28:55;1.70;99.90
12013;DHT22;6065;48.138;16.402;2022-12-15T12:31:25;1.80;99.90
12013;DHT22;6065;48.138;16.402;2022-12-15T12:33:57;1.70;99.90
12013;DHT22;6065;48.138;16.402;2022-12-15T12:36:25;1.70;99.90
12013;DHT22;6065;48.138;16.402;2022-12-15T12:38:53;1.80;99.90
12013;DHT22;6065;48.138;16.402;2022-12-15T12:41:24;1.70;99.90
12013;DHT22;6065;48.138;16.402;2022-12-15T12:43:53;1.70;99.90
12013;DHT22;6065;48.138;16.402;2022-12-15T12:46:23;1.70;99.90
12013;DHT22;6065;48.138;16.402;2022-12-15T12:48:51;1.80;99.90
12013;DHT22;6065;48.138;16.402;2022-12-15T12:51:26;1.70;99.90
12013;DHT22;6065;48.138;16.402;2022-12-15T12:53:54;1.70;99.90
12013;DHT22;6065;48.138;16.402;2022-12-15T12:56:31;1.70;99.90
12013;DHT22;6065;48.138;16.402;2022-12-15T12:58:58;1.70;99.90
12013;DHT22;6065;48.138;16.402;2022-12-15T13:01:32;1.70;99.90
12013;DHT22;6065;48.138;16.402;2022-12-15T13:04:09;1.70;99.90
12013;DHT22;6065;48.138;16.402;2022-12-15T13:09:23;1.80;99.90
12013;DHT22;6065;48.138;16.402;2022-12-15T13:11:55;1.70;99.90
12013;DHT22;6065;48.138;16.402;2022-12-15T13:14:25;1.80;99.90
12013;DHT22;6065;48.138;16.402;2022-12-15T13:16:54;1.80;99.90
12013;DHT22;6065;48.138;16.402;2022-12-15T13:22:03;1.80;99.90
12013;DHT22;6065;48.138;16.402;2022-12-15T13:24:32;1.70;99.90
12013;DHT22;6065;48.138;16.402;2022-12-15T13:27:03;1.70;99.90
12013;DHT22;6065;48.138;16.402;2022-12-15T13:29:30;1.80;99.90
12013;DHT22;6065;48.138;16.402;2022-12-15T13:32:21;1.80;99.90
12013;DHT22;6065;48.138;16.402;2022-12-15T13:34:49;1.80;99.90
12013;DHT22;6065;48.138;16.402;2022-12-15T13:39:59;1.80;99.90
12013;DHT22;6065;48.138;16.402;2022-12-15T13:42:35;1.80;99.90
12013;DHT22;6065;48.138;16.402;2022-12-15T13:48:04;1.70;99.90
12013;DHT22;6065;48.138;16.402;2022-12-15T13:50:35;1.70;99.90
12013;DHT22;6065;48.138;16.402;2022-12-15T13:53:05;1.70;99.90
12013;DHT22;6065;48.138;16.402;2022-12-15T13:55:37;1.70;99.90
12013;DHT22;6065;48.138;16.402;2022-12-15T13:58:05;1.70;99.90
12013;DHT22;6065;48.138;16.402;2022-12-15T14:00:32;1.70;99.90
12013;DHT22;6065;48.138;16.402;2022-12-15T14:03:02;1.70;99.90
12013;DHT22;6065;48.138;16.402;2022-12-15T14:05:31;1.70;99.90
12013;DHT22;6065;48.138;16.402;2022-12-15T14:07:58;1.70;99.90
12013;DHT22;6065;48.138;16.402;2022-12-15T14:10:26;1.80;99.90
12013;DHT22;6065;48.138;16.402;2022-12-15T14:12:55;1.80;99.90
12013;DHT22;6065;48.138;16.402;2022-12-15T14:15:23;1.80;99.90
12013;DHT22;6065;48.138;16.402;2022-12-15T14:17:52;1.70;99.90
12013;DHT22;6065;48.138;16.402;2022-12-15T14:20:20;1.70;99.90
12013;DHT22;6065;48.138;16.402;2022-12-15T14:22:47;1.70;99.90
12013;DHT22;6065;48.138;16.402;2022-12-15T14:25:17;1.70;99.90
12013;DHT22;6065;48.138;16.402;2022-12-15T14:27:44;1.70;99.90
12013;DHT22;6065;48.138;16.402;2022-12-15T14:30:14;1.60;99.90
12013;DHT22;6065;48.138;16.402;2022-12-15T14:32:42;1.70;99.90
12013;DHT22;6065;48.138;16.402;2022-12-15T14:35:12;1.70;99.90
12013;DHT22;6065;48.138;16.402;2022-12-15T14:37:40;1.60;99.90
12013;DHT22;6065;48.138;16.402;2022-12-15T14:40:11;1.60;99.90
12013;DHT22;6065;48.138;16.402;2022-12-15T14:42:38;1.60;99.90
12013;DHT22;6065;48.138;16.402;2022-12-15T14:45:15;1.70;99.90
12013;DHT22;6065;48.138;16.402;2022-12-15T14:47:45;1.60;99.90
12013;DHT22;6065;48.138;16.402;2022-12-15T14:50:13;1.70;99.90
12013;DHT22;6065;48.138;16.402;2022-12-15T14:52:40;1.60;99.90
12013;DHT22;6065;48.138;16.402;2022-12-15T14:55:22;1.60;99.90
12013;DHT22;6065;48.138;16.402;2022-12-15T14:57:51;1.60;99.90
12013;DHT22;6065;48.138;16.402;2022-12-15T15:00:23;1.60;99.90
12013;DHT22;6065;48.138;16.402;2022-12-15T15:05:32;1.60;99.90
12013;DHT22;6065;48.138;16.402;2022-12-15T15:07:59;1.60;99.90
12013;DHT22;6065;48.138;16.402;2022-12-15T15:10:27;1.60;99.90
12013;DHT22;6065;48.138;16.402;2022-12-15T15:12:54;1.70;99.90
12013;DHT22;6065;48.138;16.402;2022-12-15T15:15:23;1.50;99.90
12013;DHT22;6065;48.138;16.402;2022-12-15T15:17:53;1.50;99.90
12013;DHT22;6065;48.138;16.402;2022-12-15T15:20:21;1.50;99.90
12013;DHT22;6065;48.138;16.402;2022-12-15T15:23:01;1.50;99.90
12013;DHT22;6065;48.138;16.402;2022-12-15T15:25:33;1.50;99.90
12013;DHT22;6065;48.138;16.402;2022-12-15T15:28:01;1.50;99.90
12013;DHT22;6065;48.138;16.402;2022-12-15T15:30:28;1.50;99.90
12013;DHT22;6065;48.138;16.402;2022-12-15T15:33:07;1.50;99.90
12013;DHT22;6065;48.138;16.402;2022-12-15T15:35:34;1.40;99.90
12013;DHT22;6065;48.138;16.402;2022-12-15T15:38:03;1.40;99.90
12013;DHT22;6065;48.138;16.402;2022-12-15T15:40:30;1.40;99.90
12013;DHT22;6065;48.138;16.402;2022-12-15T15:42:57;1.40;99.90
12013;DHT22;6065;48.138;16.402;2022-12-15T15:45:23;1.40;99.90
12013;DHT22;6065;48.138;16.402;2022-12-15T15:47:50;1.40;99.90
12013;DHT22;6065;48.138;16.402;2022-12-15T15:50:21;1.50;99.90
12013;DHT22;6065;48.138;16.402;2022-12-15T15:52:50;1.40;99.90
12013;DHT22;6065;48.138;16.402;2022-12-15T15:55:18;1.40;99.90
12013;DHT22;6065;48.138;16.402;2022-12-15T15:57:50;1.40;99.90
12013;DHT22;6065;48.138;16.402;2022-12-15T16:00:17;1.50;99.90
12013;DHT22;6065;48.138;16.402;2022-12-15T16:02:45;1.50;99.90
12013;DHT22;6065;48.138;16.402;2022-12-15T16:05:12;1.50;99.90
12013;DHT22;6065;48.138;16.402;2022-12-15T16:07:41;1.40;99.90
12013;DHT22;6065;48.138;16.402;2022-12-15T16:10:10;1.40;99.90
12013;DHT22;6065;48.138;16.402;2022-12-15T16:12:39;1.50;99.90
12013;DHT22;6065;48.138;16.402;2022-12-15T16:15:11;1.50;99.90
12013;DHT22;6065;48.138;16.402;2022-12-15T16:17:38;1.40;99.90
12013;DHT22;6065;48.138;16.402;2022-12-15T16:20:05;1.40;99.90
12013;DHT22;6065;48.138;16.402;2022-12-15T16:22:32;1.50;99.90
12013;DHT22;6065;48.138;16.402;2022-12-15T16:25:00;1.40;99.90
12013;DHT22;6065;48.138;16.402;2022-12-15T16:27:27;1.40;99.90
12013;DHT22;6065;48.138;16.402;2022-12-15T16:29:54;1.40;99.90
12013;DHT22;6065;48.138;16.402;2022-12-15T16:32:22;1.40;99.90
12013;DHT22;6065;48.138;16.402;2022-12-15T16:34:49;1.40;99.90